Time;durP1;ratioP1;P1;durP2;ratioP2;P2;SDS_P1;SDS_P2;PMS_P1;PMS_P2;Temp;Humidity;BMP_temperature;BMP_pressure;BME280_temperature;BME280_humidity;BME280_pressure;Samples;Min_cycle;Max_cycle;Signal;HPM_P1;HPM_P2
2021/06/18 00:01:12;;;;;;;1.35;1.20;;;13.90;71.50;;;;;;4991303;28;20056;-69
2021/06/18 00:03:39;;;;;;;2.45;1.85;;;14.10;70.50;;;;;;4980848;28;20026;-67
2021/06/18 00:06:06;;;;;;;3.00;0.90;;;14.20;70.40;;;;;;4975382;28;20022;-62
2021/06/18 00:08:33;;;;;;;3.70;1.50;;;14.40;69.80;;;;;;4982852;28;20027;-68
2021/06/18 00:11:00;;;;;;;1.80;1.30;;;14.50;69.90;;;;;;4984699;28;20030;-69
2021/06/18 00:13:27;;;;;;;0.63;0.52;;;14.70;68.20;;;;;;4984721;28;20030;-71
2021/06/18 00:15:54;;;;;;;1.75;1.00;;;14.80;67.00;;;;;;4982073;28;20034;-70
2021/06/18 00:18:21;;;;;;;1.17;0.70;;;14.90;65.00;;;;;;4980256;28;20038;-62
2021/06/18 00:20:48;;;;;;;4.80;2.90;;;15.00;65.80;;;;;;4981269;28;20030;-64
2021/06/18 00:23:15;;;;;;;0.40;0.40;;;15.10;65.20;;;;;;4980271;28;20027;-63
2021/06/18 00:25:43;;;;;;;0.63;0.40;;;15.20;63.60;;;;;;4979898;28;20512;-69
2021/06/18 00:28:13;;;;;;;0.57;0.40;;;15.30;62.50;;;;;;4980930;28;20030;-70
2021/06/18 00:30:41;;;;;;;1.58;0.30;;;15.40;63.00;;;;;;4981453;28;20053;-64
2021/06/18 00:33:09;;;;;;;1.17;0.93;;;15.70;61.30;;;;;;4979761;28;20038;-64
2021/06/18 00:35:36;;;;;;;3.63;3.17;;;15.90;61.20;;;;;;4981303;28;20042;-69
2021/06/18 00:38:03;;;;;;;3.30;1.95;;;15.90;61.10;;;;;;4982258;28;20115;-69
2021/06/18 00:40:30;;;;;;;1.52;1.00;;;16.10;61.10;;;;;;4984433;28;20031;-63
2021/06/18 00:42:57;;;;;;;1.45;0.45;;;16.20;62.30;;;;;;4988642;28;20155;-65
2021/06/18 00:45:24;;;;;;;1.50;0.95;;;16.30;62.10;;;;;;4989096;28;20030;-69
2021/06/18 00:47:57;;;;;;;2.22;1.70;;;16.40;61.50;;;;;;4984425;28;20065;-71
2021/06/18 00:50:24;;;;;;;1.95;0.82;;;16.50;61.40;;;;;;4990413;28;20109;-65
2021/06/18 00:52:51;;;;;;;2.03;1.40;;;16.60;61.30;;;;;;4988379;28;20046;-65
2021/06/18 00:55:18;;;;;;;3.00;0.93;;;16.80;60.00;;;;;;4990001;28;20022;-74
2021/06/18 00:57:46;;;;;;;1.60;1.35;;;16.80;60.60;;;;;;4982262;28;20034;-74
2021/06/18 01:00:13;;;;;;;2.08;1.35;;;17.00;59.30;;;;;;4984954;28;20073;-74
2021/06/18 01:02:41;;;;;;;1.50;0.95;;;17.10;58.20;;;;;;4976114;28;20034;-71
2021/06/18 01:05:10;;;;;;;1.77;1.05;;;17.30;58.60;;;;;;4965285;28;20027;-65
2021/06/18 01:08:02;;;;;;;2.40;1.88;;;17.10;58.70;;;;;;4971579;28;20018;-65
2021/06/18 01:10:56;;;;;;;1.00;0.40;;;17.10;58.10;;;;;;4972210;28;20025;-64
2021/06/18 01:13:45;;;;;;;2.65;0.68;;;17.30;57.20;;;;;;4962965;28;20478;-74
2021/06/18 01:16:31;;;;;;;1.45;0.95;;;17.40;57.50;;;;;;4973368;28;20027;-64
2021/06/18 01:19:24;;;;;;;1.33;0.50;;;17.50;57.30;;;;;;4969151;28;20582;-65
2021/06/18 01:22:14;;;;;;;1.90;0.85;;;17.70;56.70;;;;;;4973674;28;20026;-64
2021/06/18 01:24:57;;;;;;;0.60;0.60;;;18.10;56.90;;;;;;4964322;28;20023;-65
2021/06/18 01:27:34;;;;;;;3.35;1.95;;;18.50;55.50;;;;;;4973701;28;20027;-65
2021/06/18 01:30:21;;;;;;;1.90;1.23;;;18.80;54.00;;;;;;4972675;28;20050;-65
2021/06/18 01:32:59;;;;;;;1.73;0.70;;;18.60;53.50;;;;;;4967529;28;20026;-71
2021/06/18 01:35:36;;;;;;;2.55;0.40;;;18.30;54.90;;;;;;4964480;28;20414;-65
2021/06/18 01:38:06;;;;;;;0.45;0.30;;;18.20;52.40;;;;;;4971657;28;20026;-75
2021/06/18 01:40:35;;;;;;;0.50;0.40;;;18.10;53.70;;;;;;4973127;28;20451;-65
2021/06/18 01:43:05;;;;;;;1.10;0.30;;;18.00;54.60;;;;;;4971691;28;20045;-65
2021/06/18 01:45:33;;;;;;;0.73;0.50;;;18.00;54.70;;;;;;4972970;28;20561;-65
2021/06/18 01:48:04;;;;;;;1.63;0.50;;;17.90;56.10;;;;;;4972796;28;20033;-74
2021/06/18 01:50:32;;;;;;;2.42;1.90;;;17.90;54.80;;;;;;4972776;28;20035;-65
2021/06/18 01:53:10;;;;;;;2.10;0.90;;;17.90;56.20;;;;;;4973090;28;20027;-74
2021/06/18 01:55:41;;;;;;;1.58;0.75;;;18.20;55.50;;;;;;4972200;28;20027;-71
2021/06/18 01:58:10;;;;;;;0.47;0.40;;;18.30;54.20;;;;;;4964449;28;20023;-74
2021/06/18 02:00:42;;;;;;;1.50;0.45;;;18.40;54.70;;;;;;4967938;28;20073;-75
2021/06/18 02:03:12;;;;;;;0.52;0.35;;;18.60;55.90;;;;;;4971441;28;20027;-75
2021/06/18 02:05:41;;;;;;;0.57;0.30;;;18.90;54.40;;;;;;4970124;28;20140;-71
2021/06/18 02:08:09;;;;;;;5.30;0.82;;;19.20;53.30;;;;;;4970447;28;20357;-65
2021/06/18 02:10:39;;;;;;;5.00;1.05;;;19.10;53.40;;;;;;4966566;28;20489;-65
2021/06/18 02:13:07;;;;;;;2.85;0.60;;;19.00;55.00;;;;;;4970746;28;20031;-74
2021/06/18 02:15:38;;;;;;;2.20;1.10;;;19.00;52.80;;;;;;4969222;28;20030;-75
2021/06/18 02:18:10;;;;;;;2.40;1.25;;;19.00;53.60;;;;;;4968854;28;20493;-70
2021/06/18 02:20:38;;;;;;;;;;;18.90;54.10;;;;;;4968159;28;20015;-71
2021/06/18 02:23:07;;;;;;;2.78;0.57;;;18.80;54.00;;;;;;4972094;28;19938;-66
2021/06/18 02:25:35;;;;;;;0.40;0.20;;;18.50;54.80;;;;;;4954997;28;20377;-71
2021/06/18 02:28:03;;;;;;;0.47;0.20;;;18.50;54.60;;;;;;4970910;28;20019;-65
2021/06/18 02:30:30;;;;;;;0.70;0.50;;;18.80;54.30;;;;;;4966390;28;20023;-66
2021/06/18 02:33:01;;;;;;;1.65;0.40;;;19.20;53.70;;;;;;4971793;28;20137;-65
2021/06/18 02:35:28;;;;;;;1.10;0.50;;;19.60;53.80;;;;;;4972090;28;20409;-65
2021/06/18 02:37:56;;;;;;;2.13;0.57;;;19.60;53.40;;;;;;4970557;28;20488;-71
2021/06/18 02:40:23;;;;;;;1.25;0.40;;;19.50;53.70;;;;;;4966787;28;20075;-75
2021/06/18 02:42:50;;;;;;;3.22;0.70;;;19.40;52.60;;;;;;4970642;28;20025;-66
2021/06/18 02:45:17;;;;;;;3.70;0.82;;;19.10;53.40;;;;;;4951887;28;20054;-65
2021/06/18 02:47:57;;;;;;;5.35;1.35;;;18.70;53.70;;;;;;4969466;28;20063;-65
2021/06/18 02:50:50;;;;;;;1.23;0.70;;;18.30;55.20;;;;;;4967496;28;20077;-66
2021/06/18 02:53:34;;;;;;;3.42;0.68;;;17.90;55.40;;;;;;4968473;28;20627;-66
2021/06/18 02:56:12;;;;;;;5.40;0.70;;;17.60;57.20;;;;;;4967952;28;20022;-66
2021/06/18 02:59:05;;;;;;;2.85;0.75;;;17.60;57.50;;;;;;4970074;28;20025;-76
2021/06/18 03:01:37;;;;;;;;;;;17.60;57.60;;;;;;4972329;28;20031;-65
2021/06/18 03:04:05;;;;;;;4.30;1.00;;;17.80;57.70;;;;;;4972398;28;19913;-66
2021/06/18 03:06:37;;;;;;;2.17;0.60;;;17.80;57.70;;;;;;4968321;28;20035;-75
2021/06/18 03:09:06;;;;;;;7.10;1.60;;;17.60;57.60;;;;;;4969735;28;20834;-66
2021/06/18 03:11:38;;;;;;;1.88;1.02;;;17.50;57.30;;;;;;4969844;28;20081;-65
2021/06/18 03:14:12;;;;;;;6.60;1.52;;;17.30;56.90;;;;;;4970315;28;20054;-65
2021/06/18 03:16:41;;;;;;;9.60;1.63;;;17.30;58.10;;;;;;4969908;28;20038;-66
2021/06/18 03:19:11;;;;;;;6.47;1.40;;;17.50;59.30;;;;;;4952638;28;20382;-65
2021/06/18 03:21:38;;;;;;;3.03;0.80;;;17.80;57.90;;;;;;4966060;28;20665;-66
2021/06/18 03:24:08;;;;;;;1.55;0.55;;;18.00;56.50;;;;;;4969605;28;20798;-65
2021/06/18 03:26:36;;;;;;;3.55;1.13;;;18.00;55.10;;;;;;4969306;28;20037;-65
2021/06/18 03:29:04;;;;;;;2.45;2.10;;;18.00;55.20;;;;;;4969620;28;20035;-75
2021/06/18 03:31:33;;;;;;;7.95;1.73;;;18.10;56.20;;;;;;4969484;28;20508;-71
2021/06/18 03:34:00;;;;;;;5.65;1.48;;;18.30;56.20;;;;;;4967679;28;20022;-66
2021/06/18 03:36:29;;;;;;;3.30;1.55;;;18.60;55.20;;;;;;4968937;28;20037;-67
2021/06/18 03:38:56;;;;;;;0.88;0.50;;;18.80;54.90;;;;;;4968163;28;20023;-68
2021/06/18 03:41:24;;;;;;;0.65;0.30;;;18.90;52.60;;;;;;4969272;28;20051;-67
2021/06/18 03:43:52;;;;;;;0.20;0.20;;;18.80;53.10;;;;;;4972614;28;20104;-67
2021/06/18 03:46:21;;;;;;;0.20;0.20;;;18.50;52.00;;;;;;4966528;28;20040;-66
2021/06/18 03:48:49;;;;;;;3.83;0.60;;;18.50;53.40;;;;;;4971647;28;20201;-66
2021/06/18 03:51:16;;;;;;;0.90;0.65;;;18.50;53.50;;;;;;4972648;28;20027;-66
2021/06/18 03:53:44;;;;;;;2.50;0.60;;;18.70;51.20;;;;;;4971364;28;20089;-70
2021/06/18 03:56:12;;;;;;;4.38;0.43;;;18.70;50.20;;;;;;4970170;28;20647;-66
2021/06/18 03:58:41;;;;;;;7.88;0.70;;;18.60;51.60;;;;;;4970538;28;20026;-71
2021/06/18 04:01:11;;;;;;;6.93;0.57;;;18.50;50.30;;;;;;4968905;28;20358;-70
2021/06/18 04:03:41;;;;;;;2.67;0.40;;;18.20;50.60;;;;;;4970530;28;20030;-66
2021/06/18 04:06:10;;;;;;;1.85;0.40;;;18.10;50.80;;;;;;4967391;28;20474;-65
2021/06/18 04:08:37;;;;;;;4.28;1.45;;;18.10;51.20;;;;;;4970163;28;20034;-70
2021/06/18 04:11:10;;;;;;;2.80;0.57;;;18.00;51.80;;;;;;4963515;28;20428;-66
2021/06/18 04:13:38;;;;;;;3.28;0.60;;;18.00;52.60;;;;;;4969835;28;20031;-71
2021/06/18 04:16:07;;;;;;;1.20;0.40;;;18.20;51.90;;;;;;4969715;28;20035;-66
2021/06/18 04:18:37;;;;;;;0.82;0.30;;;18.30;50.80;;;;;;4969973;28;20027;-71
2021/06/18 04:21:07;;;;;;;3.03;0.50;;;18.50;51.50;;;;;;4972378;28;20034;-65
2021/06/18 04:23:34;;;;;;;0.93;0.20;;;18.60;51.80;;;;;;4969111;28;20050;-66
2021/06/18 04:26:01;;;;;;;0.55;0.40;;;18.60;50.60;;;;;;4967591;28;20518;-70
2021/06/18 04:28:29;;;;;;;0.47;0.30;;;18.80;51.10;;;;;;4969081;28;20023;-70
2021/06/18 04:30:57;;;;;;;1.77;0.30;;;18.80;51.40;;;;;;4954076;28;20027;-65
2021/06/18 04:33:24;;;;;;;2.88;0.30;;;18.80;51.60;;;;;;4972008;28;20031;-70
2021/06/18 04:35:51;;;;;;;1.20;0.30;;;18.90;51.80;;;;;;4966691;28;20023;-67
2021/06/18 04:38:18;;;;;;;1.25;0.60;;;18.80;51.60;;;;;;4969780;28;20085;-70
2021/06/18 04:40:45;;;;;;;3.58;0.40;;;18.80;52.00;;;;;;4970733;28;20049;-70
2021/06/18 04:43:12;;;;;;;3.05;0.75;;;18.80;51.10;;;;;;4971795;28;20027;-66
2021/06/18 04:45:39;;;;;;;0.30;0.22;;;18.90;51.40;;;;;;4967978;28;20026;-70
2021/06/18 04:48:07;;;;;;;1.75;0.45;;;18.90;51.20;;;;;;4969436;28;20106;-72
2021/06/18 04:50:33;;;;;;;1.85;0.30;;;19.20;52.20;;;;;;4971259;28;20058;-65
2021/06/18 04:53:01;;;;;;;0.73;0.20;;;19.10;51.30;;;;;;4968231;28;20359;-70
2021/06/18 04:55:28;;;;;;;0.30;0.20;;;18.80;51.60;;;;;;4952691;28;20568;-66
2021/06/18 04:57:55;;;;;;;0.28;0.20;;;18.80;51.80;;;;;;4966774;28;20015;-69
2021/06/18 05:00:24;;;;;;;1.38;0.28;;;18.70;51.80;;;;;;4970818;28;20018;-65
2021/06/18 05:02:52;;;;;;;2.33;0.35;;;18.60;52.00;;;;;;4971460;28;20517;-65
2021/06/18 05:05:19;;;;;;;1.05;0.40;;;18.70;52.40;;;;;;4950272;28;20409;-70
2021/06/18 05:07:46;;;;;;;2.08;0.40;;;18.50;52.40;;;;;;4968849;28;20107;-72
2021/06/18 05:10:13;;;;;;;0.30;0.20;;;18.00;52.80;;;;;;4971418;28;20019;-66
2021/06/18 05:12:40;;;;;;;1.80;0.30;;;17.80;53.60;;;;;;4968904;28;20030;-70
2021/06/18 05:15:08;;;;;;;1.05;0.47;;;17.50;54.00;;;;;;4970352;28;20536;-71
2021/06/18 05:17:35;;;;;;;2.00;0.20;;;17.50;55.50;;;;;;4970721;28;20121;-70
2021/06/18 05:20:03;;;;;;;0.57;0.30;;;17.40;55.20;;;;;;4971250;28;20478;-64
2021/06/18 05:22:30;;;;;;;0.90;0.50;;;17.20;55.40;;;;;;4971820;28;20030;-64
2021/06/18 05:24:57;;;;;;;1.83;0.30;;;17.10;56.40;;;;;;4970449;28;20125;-70
2021/06/18 05:27:24;;;;;;;1.95;0.40;;;17.10;56.90;;;;;;4968600;28;20062;-78
2021/06/18 05:29:51;;;;;;;2.20;1.05;;;17.10;57.20;;;;;;4966691;28;20035;-76
2021/06/18 05:32:18;;;;;;;4.63;1.88;;;17.10;56.80;;;;;;4967608;28;20030;-73
2021/06/18 05:34:45;;;;;;;0.95;0.32;;;17.40;56.20;;;;;;4970022;28;20037;-67
2021/06/18 05:37:13;;;;;;;1.40;0.22;;;17.50;56.20;;;;;;4969528;28;20038;-68
2021/06/18 05:39:42;;;;;;;4.03;0.30;;;17.50;55.30;;;;;;4967914;28;20053;-71
2021/06/18 05:42:10;;;;;;;4.60;0.55;;;17.20;56.20;;;;;;4970482;28;20031;-73
2021/06/18 05:44:37;;;;;;;1.23;0.40;;;17.00;57.10;;;;;;4970301;28;20027;-70
2021/06/18 05:47:05;;;;;;;4.18;0.68;;;16.90;57.30;;;;;;4969980;28;20104;-77
2021/06/18 05:49:32;;;;;;;5.55;0.60;;;16.70;57.40;;;;;;4970175;28;20093;-74
2021/06/18 05:51:59;;;;;;;4.82;1.25;;;16.70;57.50;;;;;;4970810;28;20167;-73
2021/06/18 05:54:26;;;;;;;1.73;1.05;;;16.60;57.90;;;;;;4970582;28;20022;-67
2021/06/18 05:56:54;;;;;;;4.10;0.60;;;16.50;58.30;;;;;;4277710;28;10000766;-72
2021/06/18 05:59:21;;;;;;;5.63;0.82;;;16.50;58.60;;;;;;4967123;28;20779;-69
2021/06/18 06:01:48;;;;;;;2.05;0.70;;;16.40;58.90;;;;;;4968253;28;20714;-75
2021/06/18 06:04:15;;;;;;;2.38;0.55;;;16.30;59.40;;;;;;4965538;28;20117;-71
2021/06/18 06:06:42;;;;;;;4.65;0.50;;;16.20;59.20;;;;;;4968278;28;20604;-70
2021/06/18 06:09:09;;;;;;;4.07;0.60;;;16.20;59.90;;;;;;4968350;28;20037;-68
2021/06/18 06:11:36;;;;;;;5.43;0.70;;;16.10;60.20;;;;;;4937383;28;20644;-72
2021/06/18 06:14:04;;;;;;;2.70;0.73;;;16.10;60.10;;;;;;4967110;28;20029;-65
2021/06/18 06:16:33;;;;;;;5.40;0.80;;;16.10;60.30;;;;;;4961731;28;20034;-67
2021/06/18 06:19:01;;;;;;;1.60;0.55;;;16.00;59.70;;;;;;4963479;28;20035;-72
2021/06/18 06:21:28;;;;;;;8.15;0.70;;;15.90;59.90;;;;;;4963361;28;20106;-70
2021/06/18 06:23:55;;;;;;;5.03;1.02;;;15.90;59.80;;;;;;4962972;28;20546;-65
2021/06/18 06:26:22;;;;;;;3.05;0.63;;;15.80;59.90;;;;;;4966237;28;20042;-70
2021/06/18 06:28:50;;;;;;;3.00;0.95;;;15.80;60.40;;;;;;4965949;28;20069;-67
2021/06/18 06:31:17;;;;;;;5.68;1.00;;;15.70;60.50;;;;;;4963787;28;20034;-62
2021/06/18 06:33:44;;;;;;;5.63;1.05;;;15.60;61.10;;;;;;4964323;28;20039;-64
2021/06/18 06:36:11;;;;;;;6.53;0.95;;;15.50;61.50;;;;;;4964537;28;20773;-70
2021/06/18 06:38:38;;;;;;;1.42;0.65;;;15.40;61.30;;;;;;4965523;28;20023;-70
2021/06/18 06:41:06;;;;;;;1.40;0.60;;;15.40;61.80;;;;;;4960843;28;21493;-64
2021/06/18 06:43:33;;;;;;;2.67;1.20;;;15.30;61.90;;;;;;4962838;28;20177;-70
2021/06/18 06:46:00;;;;;;;2.38;0.63;;;15.30;62.00;;;;;;4962133;28;20093;-70
2021/06/18 06:48:27;;;;;;;7.47;1.08;;;15.20;61.90;;;;;;4937817;28;20132;-66
2021/06/18 06:50:54;;;;;;;5.80;1.15;;;15.20;62.80;;;;;;4962226;28;20070;-70
2021/06/18 06:53:21;;;;;;;4.65;0.70;;;15.20;62.00;;;;;;4964568;28;20081;-70
2021/06/18 06:55:48;;;;;;;5.03;1.40;;;15.20;61.50;;;;;;4960886;28;20045;-65
2021/06/18 06:58:15;;;;;;;12.10;6.65;;;15.10;61.10;;;;;;4961139;28;20501;-66
2021/06/18 07:00:43;;;;;;;4.72;0.50;;;15.10;61.70;;;;;;4961440;28;20413;-73
2021/06/18 07:03:09;;;;;;;3.80;0.70;;;15.10;61.30;;;;;;4958996;28;20143;-69
2021/06/18 07:05:36;;;;;;;5.97;1.30;;;15.10;61.40;;;;;;4961199;28;20438;-69
2021/06/18 07:08:25;;;;;;;5.60;1.05;;;15.00;61.60;;;;;;4960223;28;20042;-66
2021/06/18 07:10:55;;;;;;;7.28;1.38;;;15.00;61.40;;;;;;4965187;28;20064;-66
2021/06/18 07:13:22;;;;;;;8.25;1.10;;;15.00;61.50;;;;;;4961570;28;20062;-72
2021/06/18 07:15:53;;;;;;;6.88;1.63;;;15.00;61.70;;;;;;4961193;28;20038;-70
2021/06/18 07:18:20;;;;;;;5.60;1.20;;;15.00;61.60;;;;;;4965467;28;20492;-71
2021/06/18 07:20:47;;;;;;;5.93;1.67;;;14.90;61.90;;;;;;4965304;28;20034;-66
2021/06/18 07:23:15;;;;;;;7.63;1.30;;;14.90;61.70;;;;;;4946446;28;20125;-71
2021/06/18 07:25:43;;;;;;;11.15;1.80;;;14.90;61.30;;;;;;4948919;28;20519;-70
2021/06/18 07:28:11;;;;;;;4.50;1.40;;;15.00;61.30;;;;;;4948655;28;20170;-70
2021/06/18 07:30:39;;;;;;;5.63;1.38;;;14.90;61.30;;;;;;4965861;28;20029;-70
2021/06/18 07:33:06;;;;;;;2.78;1.15;;;14.80;62.10;;;;;;4965334;28;20034;-73
2021/06/18 07:35:35;;;;;;;8.95;1.55;;;14.80;61.30;;;;;;4968613;28;20513;-72
2021/06/18 07:38:02;;;;;;;5.47;1.25;;;14.80;61.50;;;;;;4947278;28;20121;-68
2021/06/18 07:40:30;;;;;;;3.55;1.30;;;14.80;61.60;;;;;;4966964;28;20814;-70
2021/06/18 07:42:57;;;;;;;3.72;0.80;;;14.70;61.70;;;;;;4965382;28;20339;-70
2021/06/18 07:45:24;;;;;;;4.53;1.00;;;14.80;62.10;;;;;;4966027;28;20058;-66
2021/06/18 07:47:51;;;;;;;13.20;2.33;;;14.70;62.00;;;;;;4948698;28;20037;-69
2021/06/18 07:50:20;;;;;;;15.18;1.10;;;14.70;62.10;;;;;;4947442;28;20058;-69
2021/06/18 07:52:48;;;;;;;4.75;1.10;;;14.70;62.60;;;;;;4965584;28;20019;-68
2021/06/18 07:55:24;;;;;;;10.18;1.08;;;14.60;62.80;;;;;;4965626;28;20095;-67
2021/06/18 07:57:52;;;;;;;8.52;1.30;;;14.60;62.70;;;;;;4965196;28;20105;-67
2021/06/18 08:00:20;;;;;;;2.95;1.20;;;14.60;63.10;;;;;;4965069;28;20031;-68
2021/06/18 08:02:48;;;;;;;6.43;1.05;;;14.60;62.30;;;;;;4967342;28;20062;-69
2021/06/18 08:05:15;;;;;;;2.95;1.02;;;14.60;63.20;;;;;;4967901;28;20035;-67
2021/06/18 08:07:44;;;;;;;3.58;0.90;;;14.50;63.20;;;;;;4621659;28;10000243;-66
2021/06/18 08:10:14;;;;;;;3.60;0.88;;;14.50;62.60;;;;;;4964059;28;20030;-71
2021/06/18 08:12:42;;;;;;;2.47;1.10;;;14.50;63.30;;;;;;4966049;28;20109;-69
2021/06/18 08:15:10;;;;;;;3.92;0.52;;;14.40;63.60;;;;;;4964749;28;20086;-64
2021/06/18 08:17:37;;;;;;;0.55;0.52;;;14.40;62.80;;;;;;4953761;28;20042;-71
2021/06/18 08:20:07;;;;;;;1.52;1.13;;;14.40;62.80;;;;;;4969114;28;20034;-68
2021/06/18 08:22:34;;;;;;;1.90;1.15;;;14.40;63.60;;;;;;4965068;28;20573;-71
2021/06/18 08:25:02;;;;;;;2.00;1.10;;;14.40;63.90;;;;;;4963171;28;20149;-70
2021/06/18 08:27:30;;;;;;;5.50;1.25;;;14.30;65.40;;;;;;4961929;28;20598;-69
2021/06/18 08:29:57;;;;;;;1.40;0.85;;;14.30;66.70;;;;;;4963533;28;20031;-74
2021/06/18 08:32:24;;;;;;;1.27;0.93;;;14.20;65.60;;;;;;4960775;28;20023;-65
2021/06/18 08:34:51;;;;;;;2.35;0.68;;;14.20;65.00;;;;;;4961002;28;20409;-66
2021/06/18 08:37:18;;;;;;;1.85;0.45;;;14.20;65.70;;;;;;4965573;28;20023;-66
2021/06/18 08:39:45;;;;;;;3.30;1.30;;;14.10;65.10;;;;;;4964312;28;20113;-73
2021/06/18 08:42:12;;;;;;;1.13;0.70;;;14.20;65.70;;;;;;4964737;28;20023;-69
2021/06/18 08:44:39;;;;;;;1.85;0.82;;;14.10;67.20;;;;;;4963755;28;20023;-67
2021/06/18 08:47:06;;;;;;;4.75;0.60;;;14.00;69.80;;;;;;4964738;28;20041;-70
2021/06/18 08:49:35;;;;;;;1.42;0.40;;;13.90;69.70;;;;;;4961884;28;20209;-64
2021/06/18 08:52:02;;;;;;;2.42;0.30;;;13.70;70.80;;;;;;4964313;28;20097;-65
2021/06/18 08:57:20;;;;;;;1.77;0.50;;;13.30;74.70;;;;;;4962840;28;20037;-66
2021/06/18 08:59:50;;;;;;;0.98;0.40;;;13.00;76.80;;;;;;4963762;28;20061;-63
2021/06/18 09:02:18;;;;;;;0.47;0.30;;;12.90;77.50;;;;;;4963781;28;20127;-64
2021/06/18 09:05:10;;;;;;;1.48;0.30;;;12.90;77.10;;;;;;4965384;28;20489;-66
2021/06/18 09:07:55;;;;;;;0.32;0.30;;;12.70;78.10;;;;;;4963415;28;20106;-72
2021/06/18 09:10:32;;;;;;;2.25;1.70;;;12.60;79.70;;;;;;4961412;28;20034;-70
2021/06/18 09:13:20;;;;;;;1.98;0.50;;;12.50;82.20;;;;;;4963437;28;20082;-70
2021/06/18 09:15:57;;;;;;;4.32;0.68;;;12.40;82.70;;;;;;4946168;28;20037;-71
2021/06/18 09:18:40;;;;;;;2.40;0.70;;;12.30;84.70;;;;;;4960590;28;20595;-73
2021/06/18 09:21:15;;;;;;;1.00;0.63;;;12.10;88.20;;;;;;4959805;28;20027;-73
2021/06/18 09:23:51;;;;;;;3.35;0.60;;;11.80;87.80;;;;;;4961446;28;20026;-70
2021/06/18 09:26:38;;;;;;;3.17;0.60;;;11.80;88.80;;;;;;4960529;28;20046;-73
2021/06/18 09:29:11;;;;;;;2.55;0.60;;;11.60;90.30;;;;;;4960089;28;20081;-68
2021/06/18 09:31:56;;;;;;;;;;;11.50;90.40;;;;;;4950607;28;20023;-67
2021/06/18 09:37:19;;;;;;;4.65;0.95;;;11.50;91.30;;;;;;4961035;28;20038;-66
2021/06/18 09:40:16;;;;;;;1.60;0.77;;;11.40;90.40;;;;;;4961569;28;20044;-67
2021/06/18 09:43:01;;;;;;;6.50;1.27;;;11.50;90.00;;;;;;4960068;28;20053;-71
2021/06/18 09:45:29;;;;;;;4.70;0.90;;;11.50;90.10;;;;;;4962464;28;20033;-73
2021/06/18 09:48:17;;;;;;;3.20;0.68;;;11.50;90.30;;;;;;4960928;28;20745;-70
2021/06/18 09:50:47;;;;;;;1.73;0.65;;;11.40;90.90;;;;;;4961186;28;20568;-65
2021/06/18 09:53:15;;;;;;;1.15;0.80;;;11.50;90.60;;;;;;4960385;28;20107;-72
2021/06/18 09:55:47;;;;;;;1.63;0.73;;;11.40;91.00;;;;;;4960389;28;20541;-67
2021/06/18 09:58:30;;;;;;;2.35;0.60;;;11.40;90.90;;;;;;4960218;28;20148;-70
2021/06/18 10:01:32;;;;;;;1.27;0.80;;;11.40;91.40;;;;;;4959745;28;20109;-74
2021/06/18 10:03:59;;;;;;;1.35;0.60;;;11.30;91.70;;;;;;4955092;28;20759;-72
2021/06/18 10:06:31;;;;;;;2.28;1.25;;;11.30;92.00;;;;;;4959815;28;20533;-71
2021/06/18 10:09:00;;;;;;;2.42;1.05;;;11.30;91.70;;;;;;4960280;28;20022;-69
2021/06/18 10:11:31;;;;;;;1.70;1.05;;;11.20;92.10;;;;;;4944516;28;20098;-68
2021/06/18 10:13:58;;;;;;;1.00;0.90;;;11.20;92.10;;;;;;4960843;28;20089;-69
2021/06/18 10:16:27;;;;;;;1.05;0.70;;;11.20;92.50;;;;;;4960468;28;20062;-70
2021/06/18 10:18:58;;;;;;;3.58;0.70;;;11.20;92.40;;;;;;4960870;28;20031;-68
2021/06/18 10:21:27;;;;;;;1.58;0.70;;;11.20;92.40;;;;;;4952311;28;20019;-66
2021/06/18 10:24:05;;;;;;;2.45;0.80;;;11.20;92.60;;;;;;4960792;28;20101;-72
2021/06/18 10:26:32;;;;;;;1.20;0.80;;;11.10;92.60;;;;;;4959680;28;20398;-70
2021/06/18 10:29:01;;;;;;;1.77;1.00;;;11.10;92.90;;;;;;4961786;28;20467;-65
2021/06/18 10:31:37;;;;;;;2.20;1.50;;;11.10;93.50;;;;;;4945407;28;20057;-69
2021/06/18 10:34:16;;;;;;;2.80;1.85;;;11.00;93.90;;;;;;4963720;28;20584;-71
2021/06/18 10:36:44;;;;;;;4.90;3.50;;;11.00;93.80;;;;;;4956718;28;20035;-67
2021/06/18 10:39:20;;;;;;;8.18;6.45;;;11.00;94.20;;;;;;4945908;28;20034;-70
2021/06/18 10:41:55;;;;;;;12.93;10.23;;;11.00;94.40;;;;;;4939254;28;20027;-65
2021/06/18 10:44:40;;;;;;;8.25;6.53;;;10.90;94.80;;;;;;4956183;28;20035;-69
2021/06/18 10:47:31;;;;;;;5.93;4.85;;;10.90;95.10;;;;;;4961966;28;20122;-63
2021/06/18 10:49:59;;;;;;;6.38;3.75;;;10.80;95.20;;;;;;4953820;23;20196;-65
2021/06/18 10:52:35;;;;;;;4.70;4.05;;;10.80;95.30;;;;;;4965848;28;20067;-66
2021/06/18 10:55:02;;;;;;;3.17;2.75;;;10.70;95.50;;;;;;4627525;28;10000123;-72
2021/06/18 10:57:30;;;;;;;3.97;2.80;;;10.70;95.80;;;;;;4961126;28;20462;-65
2021/06/18 11:00:24;;;;;;;3.08;2.38;;;10.80;95.90;;;;;;4961421;28;20435;-66
2021/06/18 11:02:51;;;;;;;3.30;2.60;;;10.80;96.00;;;;;;4962692;28;20022;-66
2021/06/18 11:05:19;;;;;;;2.78;2.30;;;10.80;95.80;;;;;;4969371;28;20114;-67
2021/06/18 11:07:46;;;;;;;4.13;2.40;;;10.80;95.90;;;;;;4962581;28;20467;-67
2021/06/18 11:10:34;;;;;;;3.47;2.75;;;10.80;95.80;;;;;;4959894;28;20033;-68
2021/06/18 11:13:10;;;;;;;5.13;4.28;;;10.80;95.90;;;;;;4944164;28;20030;-68
2021/06/18 11:15:43;;;;;;;3.42;2.45;;;10.80;95.90;;;;;;4958274;28;20030;-68
2021/06/18 11:18:19;;;;;;;;;;;10.80;95.80;;;;;;4960438;28;20046;-71
2021/06/18 11:20:51;;;;;;;3.65;2.80;;;10.80;95.50;;;;;;4956646;28;19918;-68
2021/06/18 11:23:24;;;;;;;10.17;7.00;;;10.80;95.80;;;;;;4960941;28;20022;-65
2021/06/18 11:26:00;;;;;;;7.68;5.70;;;10.80;95.70;;;;;;4962578;28;20027;-65
2021/06/18 11:28:27;;;;;;;6.78;4.95;;;10.90;95.50;;;;;;4960355;28;20066;-63
2021/06/18 11:31:08;;;;;;;6.20;4.75;;;10.90;95.30;;;;;;4960014;28;20031;-65
2021/06/18 11:33:49;;;;;;;7.25;3.72;;;10.90;95.20;;;;;;4956125;28;20345;-66
2021/06/18 11:36:24;;;;;;;5.05;4.07;;;10.90;95.40;;;;;;4966145;28;20027;-68
2021/06/18 11:39:04;;;;;;;7.60;3.85;;;10.90;95.40;;;;;;4960497;28;20019;-73
2021/06/18 11:41:33;;;;;;;7.75;5.57;;;10.90;95.70;;;;;;4963578;28;20110;-74
2021/06/18 11:44:04;;;;;;;7.40;5.60;;;10.90;95.60;;;;;;4963266;28;20074;-73
2021/06/18 11:46:33;;;;;;;6.78;5.07;;;10.90;95.80;;;;;;4938438;28;20090;-68
2021/06/18 11:49:18;;;;;;;7.45;5.30;;;10.80;95.80;;;;;;4960964;28;20055;-72
2021/06/18 11:51:45;;;;;;;13.15;8.30;;;10.80;95.70;;;;;;4957329;28;20189;-68
2021/06/18 11:54:30;;;;;;;12.30;8.85;;;10.80;95.80;;;;;;4968241;28;20030;-65
2021/06/18 11:57:19;;;;;;;8.70;7.10;;;10.80;95.90;;;;;;4962475;28;20045;-73
2021/06/18 11:59:58;;;;;;;10.45;7.75;;;10.80;96.30;;;;;;4960901;28;20078;-70
2021/06/18 12:02:30;;;;;;;7.32;5.38;;;10.90;95.90;;;;;;4961717;28;20035;-67
2021/06/18 12:05:09;;;;;;;4.95;3.53;;;10.80;96.00;;;;;;4965986;28;20026;-71
2021/06/18 12:07:37;;;;;;;4.25;3.33;;;10.90;95.20;;;;;;4966138;28;20034;-71
2021/06/18 12:10:05;;;;;;;5.95;4.90;;;10.80;95.30;;;;;;4963459;28;20030;-71
2021/06/18 12:12:47;;;;;;;4.97;4.07;;;10.70;95.50;;;;;;4958346;28;20247;-64
2021/06/18 12:15:19;;;;;;;4.07;3.28;;;10.80;94.90;;;;;;4959362;28;20034;-64
2021/06/18 12:17:50;;;;;;;4.50;3.60;;;10.80;95.10;;;;;;4966073;28;20057;-71
2021/06/18 12:20:38;;;;;;;6.05;4.25;;;10.80;95.10;;;;;;4964220;28;20338;-63
2021/06/18 12:23:11;;;;;;;3.53;3.22;;;10.90;95.10;;;;;;4966273;28;20050;-67
2021/06/18 12:25:38;;;;;;;4.68;2.85;;;10.90;94.90;;;;;;4966927;28;20138;-66
2021/06/18 12:28:07;;;;;;;4.47;3.08;;;11.00;94.20;;;;;;4950563;28;20516;-72
2021/06/18 12:30:37;;;;;;;3.42;1.95;;;10.90;94.60;;;;;;4967118;28;20643;-65
2021/06/18 12:33:06;;;;;;;2.33;1.70;;;11.00;93.30;;;;;;4947921;28;20027;-71
2021/06/18 12:35:44;;;;;;;3.08;1.75;;;11.20;92.80;;;;;;4960586;28;20065;-73
2021/06/18 12:38:13;;;;;;;2.72;1.98;;;11.30;91.00;;;;;;4963006;28;20086;-68
2021/06/18 12:40:45;;;;;;;2.65;1.10;;;11.50;90.50;;;;;;4975931;28;20022;-74
2021/06/18 12:43:14;;;;;;;1.90;1.10;;;11.70;89.70;;;;;;4970047;28;20030;-70
2021/06/18 12:45:49;;;;;;;1.63;1.00;;;11.80;88.00;;;;;;4958873;28;20036;-73
2021/06/18 12:48:18;;;;;;;1.35;1.10;;;11.90;85.40;;;;;;4967131;28;20050;-65
2021/06/18 12:50:57;;;;;;;2.95;0.80;;;12.10;85.50;;;;;;4973776;28;20023;-70
2021/06/18 12:53:38;;;;;;;0.55;0.50;;;12.00;86.30;;;;;;4964716;28;20031;-64
2021/06/18 12:56:14;;;;;;;0.35;0.30;;;12.00;84.90;;;;;;4959411;28;20070;-69
2021/06/18 12:58:42;;;;;;;1.35;0.47;;;12.10;83.70;;;;;;4962117;28;20046;-68
2021/06/18 13:01:11;;;;;;;0.30;0.30;;;12.00;84.70;;;;;;4970776;28;21794;-64
2021/06/18 13:03:49;;;;;;;0.30;0.30;;;12.00;83.20;;;;;;4965620;28;20405;-71
2021/06/18 13:06:18;;;;;;;0.28;0.13;;;12.10;81.30;;;;;;4968693;28;20536;-65
2021/06/18 13:08:53;;;;;;;0.30;0.30;;;12.30;81.00;;;;;;4971101;28;20420;-65
2021/06/18 13:11:32;;;;;;;0.70;0.30;;;12.40;80.80;;;;;;4970635;28;20089;-63
2021/06/18 13:14:18;;;;;;;0.32;0.32;;;12.40;80.00;;;;;;4970558;28;20043;-71